sensor_id;sensor_type;location;lat;lon;timestamp;pressure;altitude;pressure_sealevel;temperature;humidity
37710;BME280;60223;34.854;-92.408;2023-05-02T00:01:24;99922.12;;;24.81;27.37
37710;BME280;60223;34.854;-92.408;2023-05-02T00:03:50;99920.25;;;24.94;27.26
37710;BME280;60223;34.854;-92.408;2023-05-02T00:06:16;99921.45;;;24.71;27.54
37710;BME280;60223;34.854;-92.408;2023-05-02T00:08:42;99922.09;;;25.27;27.23
37710;BME280;60223;34.854;-92.408;2023-05-02T00:11:07;99919.55;;;24.74;27.31
37710;BME280;60223;34.854;-92.408;2023-05-02T00:13:33;99918.92;;;25.15;27.15
37710;BME280;60223;34.854;-92.408;2023-05-02T00:15:59;99917.83;;;25.16;27.17
37710;BME280;60223;34.854;-92.408;2023-05-02T00:18:25;99914.42;;;25.37;26.97
37710;BME280;60223;34.854;-92.408;2023-05-02T00:20:49;99913.82;;;25.49;27.11
37710;BME280;60223;34.854;-92.408;2023-05-02T00:23:16;99914.21;;;24.99;27.15
37710;BME280;60223;34.854;-92.408;2023-05-02T00:25:46;99915.02;;;25.38;27.27
37710;BME280;60223;34.854;-92.408;2023-05-02T00:28:07;99912.27;;;25.32;27.15
37710;BME280;60223;34.854;-92.408;2023-05-02T00:30:35;99908.94;;;25.28;27.17
37710;BME280;60223;34.854;-92.408;2023-05-02T00:32:58;99913.49;;;25.23;27.27
37710;BME280;60223;34.854;-92.408;2023-05-02T00:35:24;99914.75;;;24.76;27.95
37710;BME280;60223;34.854;-92.408;2023-05-02T00:37:49;99914.27;;;25.08;27.77
37710;BME280;60223;34.854;-92.408;2023-05-02T00:40:15;99917.45;;;25.64;26.98
37710;BME280;60223;34.854;-92.408;2023-05-02T00:42:39;99923.16;;;25.31;27.40
37710;BME280;60223;34.854;-92.408;2023-05-02T00:45:07;99928.32;;;25.31;27.21
37710;BME280;60223;34.854;-92.408;2023-05-02T00:47:32;99928.95;;;25.42;27.08
37710;BME280;60223;34.854;-92.408;2023-05-02T00:49:57;99932.82;;;25.42;27.11
37710;BME280;60223;34.854;-92.408;2023-05-02T00:52:23;99933.23;;;25.42;27.12
37710;BME280;60223;34.854;-92.408;2023-05-02T00:54:49;99936.76;;;25.24;27.03
37710;BME280;60223;34.854;-92.408;2023-05-02T00:57:13;99940.82;;;25.33;27.21
37710;BME280;60223;34.854;-92.408;2023-05-02T00:59:40;99941.97;;;25.33;27.15
37710;BME280;60223;34.854;-92.408;2023-05-02T01:02:17;99943.13;;;25.42;27.02
37710;BME280;60223;34.854;-92.408;2023-05-02T01:04:37;99945.50;;;25.36;27.13
37710;BME280;60223;34.854;-92.408;2023-05-02T01:07:07;99947.31;;;24.85;27.42
37710;BME280;60223;34.854;-92.408;2023-05-02T01:09:32;99949.14;;;25.41;27.12
37710;BME280;60223;34.854;-92.408;2023-05-02T01:11:52;99952.10;;;25.43;27.13
37710;BME280;60223;34.854;-92.408;2023-05-02T01:14:15;99954.72;;;25.39;27.12
37710;BME280;60223;34.854;-92.408;2023-05-02T01:16:39;99961.79;;;25.58;26.95
37710;BME280;60223;34.854;-92.408;2023-05-02T01:19:05;99964.13;;;25.31;27.20
37710;BME280;60223;34.854;-92.408;2023-05-02T01:21:31;99970.35;;;24.92;27.35
37710;BME280;60223;34.854;-92.408;2023-05-02T01:24:06;99977.15;;;24.68;27.62
37710;BME280;60223;34.854;-92.408;2023-05-02T01:26:28;99980.77;;;25.20;27.57
37710;BME280;60223;34.854;-92.408;2023-05-02T01:28:54;99980.33;;;24.96;27.25
37710;BME280;60223;34.854;-92.408;2023-05-02T01:31:13;99982.32;;;24.94;27.55
37710;BME280;60223;34.854;-92.408;2023-05-02T01:33:38;99984.03;;;25.38;27.31
37710;BME280;60223;34.854;-92.408;2023-05-02T01:36:06;99987.89;;;25.21;27.50
37710;BME280;60223;34.854;-92.408;2023-05-02T01:38:31;99991.25;;;24.59;27.68
37710;BME280;60223;34.854;-92.408;2023-05-02T01:40:56;99991.58;;;24.79;27.76
37710;BME280;60223;34.854;-92.408;2023-05-02T01:43:24;99994.47;;;25.06;27.75
37710;BME280;60223;34.854;-92.408;2023-05-02T01:45:48;100002.23;;;24.72;27.60
37710;BME280;60223;34.854;-92.408;2023-05-02T01:48:13;100003.75;;;24.77;27.60
37710;BME280;60223;34.854;-92.408;2023-05-02T01:50:39;100005.07;;;24.89;27.74
37710;BME280;60223;34.854;-92.408;2023-05-02T01:53:06;100007.36;;;25.13;27.61
37710;BME280;60223;34.854;-92.408;2023-05-02T01:55:31;100008.72;;;25.58;27.41
37710;BME280;60223;34.854;-92.408;2023-05-02T01:57:56;100014.16;;;25.15;27.65
37710;BME280;60223;34.854;-92.408;2023-05-02T02:00:22;100016.75;;;25.07;27.76
37710;BME280;60223;34.854;-92.408;2023-05-02T02:02:46;100022.70;;;25.13;27.71
37710;BME280;60223;34.854;-92.408;2023-05-02T02:05:13;100029.84;;;25.19;27.73
37710;BME280;60223;34.854;-92.408;2023-05-02T02:07:38;100036.38;;;25.38;27.67
37710;BME280;60223;34.854;-92.408;2023-05-02T02:10:05;100045.17;;;25.35;27.47
37710;BME280;60223;34.854;-92.408;2023-05-02T02:12:34;100046.36;;;25.12;27.60
37710;BME280;60223;34.854;-92.408;2023-05-02T02:14:59;100050.06;;;25.09;27.61
37710;BME280;60223;34.854;-92.408;2023-05-02T02:17:24;100052.13;;;24.92;27.76
37710;BME280;60223;34.854;-92.408;2023-05-02T02:19:47;100057.01;;;24.61;27.86
37710;BME280;60223;34.854;-92.408;2023-05-02T02:22:15;100059.43;;;25.07;27.84
37710;BME280;60223;34.854;-92.408;2023-05-02T02:24:39;100061.76;;;25.23;27.65
37710;BME280;60223;34.854;-92.408;2023-05-02T02:27:03;100066.78;;;25.00;27.62
37710;BME280;60223;34.854;-92.408;2023-05-02T02:29:29;100067.42;;;24.73;27.63
37710;BME280;60223;34.854;-92.408;2023-05-02T02:31:54;100068.49;;;24.81;27.81
37710;BME280;60223;34.854;-92.408;2023-05-02T02:34:20;100072.37;;;24.72;27.87
37710;BME280;60223;34.854;-92.408;2023-05-02T02:36:48;100076.32;;;24.90;27.73
37710;BME280;60223;34.854;-92.408;2023-05-02T02:39:22;100080.99;;;24.65;27.69
37710;BME280;60223;34.854;-92.408;2023-05-02T02:41:42;100081.43;;;24.88;27.74
37710;BME280;60223;34.854;-92.408;2023-05-02T02:44:08;100083.57;;;24.66;28.00
37710;BME280;60223;34.854;-92.408;2023-05-02T02:46:37;100085.50;;;24.65;28.02
37710;BME280;60223;34.854;-92.408;2023-05-02T02:49:03;100087.78;;;25.07;27.75
37710;BME280;60223;34.854;-92.408;2023-05-02T02:51:28;100088.69;;;25.09;27.62
37710;BME280;60223;34.854;-92.408;2023-05-02T02:53:52;100093.68;;;25.00;27.49
37710;BME280;60223;34.854;-92.408;2023-05-02T02:56:11;100099.55;;;25.50;27.49
37710;BME280;60223;34.854;-92.408;2023-05-02T02:58:56;100101.06;;;25.04;27.63
37710;BME280;60223;34.854;-92.408;2023-05-02T03:01:03;100103.91;;;25.42;27.27
37710;BME280;60223;34.854;-92.408;2023-05-02T03:03:29;100103.81;;;25.12;27.56
37710;BME280;60223;34.854;-92.408;2023-05-02T03:05:53;100107.29;;;25.45;27.45
37710;BME280;60223;34.854;-92.408;2023-05-02T03:08:20;100108.75;;;25.02;27.60
37710;BME280;60223;34.854;-92.408;2023-05-02T03:10:45;100113.24;;;24.38;28.19
37710;BME280;60223;34.854;-92.408;2023-05-02T03:13:11;100114.00;;;24.81;27.90
37710;BME280;60223;34.854;-92.408;2023-05-02T03:18:03;100116.69;;;25.04;27.37
37710;BME280;60223;34.854;-92.408;2023-05-02T03:20:27;100119.53;;;24.06;28.48
37710;BME280;60223;34.854;-92.408;2023-05-02T03:22:54;100120.66;;;24.91;27.58
37710;BME280;60223;34.854;-92.408;2023-05-02T03:25:24;100123.50;;;24.80;27.73
37710;BME280;60223;34.854;-92.408;2023-05-02T03:27:45;100123.01;;;24.63;27.98
37710;BME280;60223;34.854;-92.408;2023-05-02T03:30:12;100124.09;;;24.75;27.92
37710;BME280;60223;34.854;-92.408;2023-05-02T03:32:36;100126.88;;;24.70;28.22
37710;BME280;60223;34.854;-92.408;2023-05-02T03:35:02;100129.02;;;24.36;28.29
37710;BME280;60223;34.854;-92.408;2023-05-02T03:37:27;100126.60;;;25.37;27.56
37710;BME280;60223;34.854;-92.408;2023-05-02T03:39:53;100129.35;;;24.84;27.98
37710;BME280;60223;34.854;-92.408;2023-05-02T03:42:17;100127.17;;;24.83;27.96
37710;BME280;60223;34.854;-92.408;2023-05-02T03:44:44;100129.70;;;25.19;27.63
37710;BME280;60223;34.854;-92.408;2023-05-02T03:47:10;100125.75;;;25.30;27.52
37710;BME280;60223;34.854;-92.408;2023-05-02T03:49:37;100126.89;;;24.94;27.57
37710;BME280;60223;34.854;-92.408;2023-05-02T03:52:02;100126.43;;;25.10;27.42
37710;BME280;60223;34.854;-92.408;2023-05-02T03:54:30;100126.35;;;25.20;27.24
37710;BME280;60223;34.854;-92.408;2023-05-02T03:56:52;100125.30;;;24.98;27.31
37710;BME280;60223;34.854;-92.408;2023-05-02T03:59:18;100124.95;;;25.02;27.52
37710;BME280;60223;34.854;-92.408;2023-05-02T04:01:47;100124.87;;;25.39;27.04
37710;BME280;60223;34.854;-92.408;2023-05-02T04:04:10;100126.80;;;25.47;26.96
37710;BME280;60223;34.854;-92.408;2023-05-02T04:06:36;100126.46;;;25.65;26.94
37710;BME280;60223;34.854;-92.408;2023-05-02T04:09:00;100126.95;;;25.31;27.01
37710;BME280;60223;34.854;-92.408;2023-05-02T04:11:29;100128.32;;;25.54;27.14
37710;BME280;60223;34.854;-92.408;2023-05-02T04:23:47;100129.93;;;24.99;27.28
37710;BME280;60223;34.854;-92.408;2023-05-02T04:26:01;100129.39;;;25.52;26.89
37710;BME280;60223;34.854;-92.408;2023-05-02T04:28:26;100129.83;;;25.09;27.09
37710;BME280;60223;34.854;-92.408;2023-05-02T04:30:52;100132.37;;;25.51;26.92
37710;BME280;60223;34.854;-92.408;2023-05-02T04:33:17;100136.73;;;25.02;27.17
37710;BME280;60223;34.854;-92.408;2023-05-02T04:35:44;100141.76;;;25.24;27.17
37710;BME280;60223;34.854;-92.408;2023-05-02T04:38:09;100140.72;;;24.83;27.28
37710;BME280;60223;34.854;-92.408;2023-05-02T04:40:35;100140.08;;;24.91;27.45
37710;BME280;60223;34.854;-92.408;2023-05-02T04:43:00;100139.16;;;24.49;27.61
37710;BME280;60223;34.854;-92.408;2023-05-02T04:45:24;100138.05;;;24.67;27.61
37710;BME280;60223;34.854;-92.408;2023-05-02T04:47:52;100141.92;;;24.27;27.75
37710;BME280;60223;34.854;-92.408;2023-05-02T04:50:17;100146.38;;;24.54;27.70
37710;BME280;60223;34.854;-92.408;2023-05-02T04:52:43;100149.81;;;24.35;27.85
37710;BME280;60223;34.854;-92.408;2023-05-02T04:55:09;100144.33;;;24.44;27.73
37710;BME280;60223;34.854;-92.408;2023-05-02T04:57:34;100146.17;;;23.96;27.75
37710;BME280;60223;34.854;-92.408;2023-05-02T05:00:01;100146.60;;;24.41;27.78
37710;BME280;60223;34.854;-92.408;2023-05-02T05:02:26;100150.74;;;24.34;27.76
37710;BME280;60223;34.854;-92.408;2023-05-02T05:04:51;100148.41;;;24.44;27.68
37710;BME280;60223;34.854;-92.408;2023-05-02T05:07:16;100151.82;;;24.04;27.81
37710;BME280;60223;34.854;-92.408;2023-05-02T05:09:43;100153.42;;;24.10;27.92
37710;BME280;60223;34.854;-92.408;2023-05-02T05:12:08;100154.39;;;24.23;27.79
37710;BME280;60223;34.854;-92.408;2023-05-02T05:14:34;100156.20;;;24.29;27.71
37710;BME280;60223;34.854;-92.408;2023-05-02T05:16:58;100153.41;;;24.13;27.80
37710;BME280;60223;34.854;-92.408;2023-05-02T05:19:26;100154.65;;;24.10;27.86
37710;BME280;60223;34.854;-92.408;2023-05-02T05:21:51;100153.27;;;23.97;27.93
37710;BME280;60223;34.854;-92.408;2023-05-02T05:24:17;100154.48;;;24.08;27.80
37710;BME280;60223;34.854;-92.408;2023-05-02T05:26:41;100154.51;;;24.01;27.86
37710;BME280;60223;34.854;-92.408;2023-05-02T05:29:08;100155.20;;;23.69;27.89
37710;BME280;60223;34.854;-92.408;2023-05-02T05:31:34;100160.10;;;23.97;27.86
37710;BME280;60223;34.854;-92.408;2023-05-02T05:33:59;100161.04;;;24.69;27.63
37710;BME280;60223;34.854;-92.408;2023-05-02T05:36:26;100160.76;;;24.06;27.75
37710;BME280;60223;34.854;-92.408;2023-05-02T05:38:49;100162.53;;;24.31;27.48
37710;BME280;60223;34.854;-92.408;2023-05-02T05:41:16;100159.43;;;24.12;27.63
37710;BME280;60223;34.854;-92.408;2023-05-02T05:43:42;100161.59;;;24.08;27.66
37710;BME280;60223;34.854;-92.408;2023-05-02T05:46:08;100163.55;;;24.17;27.54
37710;BME280;60223;34.854;-92.408;2023-05-02T05:48:32;100166.67;;;24.15;27.55
37710;BME280;60223;34.854;-92.408;2023-05-02T05:51:02;100167.60;;;24.10;27.58
37710;BME280;60223;34.854;-92.408;2023-05-02T05:53:24;100171.17;;;23.70;27.49
37710;BME280;60223;34.854;-92.408;2023-05-02T05:55:51;100170.09;;;24.09;27.59
37710;BME280;60223;34.854;-92.408;2023-05-02T05:58:16;100168.37;;;23.83;27.85
37710;BME280;60223;34.854;-92.408;2023-05-02T06:00:41;100168.37;;;24.02;27.95
37710;BME280;60223;34.854;-92.408;2023-05-02T06:03:08;100166.47;;;23.74;27.94
37710;BME280;60223;34.854;-92.408;2023-05-02T06:05:33;100167.19;;;23.70;27.99
37710;BME280;60223;34.854;-92.408;2023-05-02T06:07:59;100165.59;;;23.87;27.80
37710;BME280;60223;34.854;-92.408;2023-05-02T06:10:21;100170.07;;;23.75;27.89
37710;BME280;60223;34.854;-92.408;2023-05-02T06:12:48;100168.50;;;23.91;27.68
37710;BME280;60223;34.854;-92.408;2023-05-02T06:15:16;100168.28;;;23.81;27.99
37710;BME280;60223;34.854;-92.408;2023-05-02T06:17:41;100168.68;;;23.76;27.81
37710;BME280;60223;34.854;-92.408;2023-05-02T06:20:08;100166.66;;;23.99;27.78
37710;BME280;60223;34.854;-92.408;2023-05-02T06:22:31;100165.77;;;23.57;27.94
37710;BME280;60223;34.854;-92.408;2023-05-02T06:24:59;100166.65;;;23.97;27.52
37710;BME280;60223;34.854;-92.408;2023-05-02T06:27:24;100167.23;;;23.89;27.59
37710;BME280;60223;34.854;-92.408;2023-05-02T06:29:50;100165.86;;;23.67;27.75
37710;BME280;60223;34.854;-92.408;2023-05-02T06:32:15;100164.77;;;23.94;27.71
37710;BME280;60223;34.854;-92.408;2023-05-02T06:34:41;100165.00;;;23.80;27.65
37710;BME280;60223;34.854;-92.408;2023-05-02T06:37:07;100163.18;;;24.33;27.56
37710;BME280;60223;34.854;-92.408;2023-05-02T06:39:32;100161.70;;;23.75;27.64
37710;BME280;60223;34.854;-92.408;2023-05-02T06:41:58;100163.33;;;23.89;27.52
37710;BME280;60223;34.854;-92.408;2023-05-02T06:44:24;100163.49;;;23.80;27.59
37710;BME280;60223;34.854;-92.408;2023-05-02T06:46:48;100161.90;;;23.36;28.00
37710;BME280;60223;34.854;-92.408;2023-05-02T06:49:15;100159.53;;;23.61;27.98
37710;BME280;60223;34.854;-92.408;2023-05-02T06:51:40;100156.45;;;23.38;27.95
37710;BME280;60223;34.854;-92.408;2023-05-02T06:54:06;100153.55;;;23.42;27.95
37710;BME280;60223;34.854;-92.408;2023-05-02T06:56:32;100154.06;;;23.92;27.68
37710;BME280;60223;34.854;-92.408;2023-05-02T06:58:58;100149.85;;;23.66;27.68
37710;BME280;60223;34.854;-92.408;2023-05-02T07:01:24;100143.92;;;23.38;27.93
37710;BME280;60223;34.854;-92.408;2023-05-02T07:03:48;100141.41;;;23.62;27.91
37710;BME280;60223;34.854;-92.408;2023-05-02T07:06:15;100140.20;;;23.48;27.78
37710;BME280;60223;34.854;-92.408;2023-05-02T07:08:40;100140.59;;;23.87;27.87
37710;BME280;60223;34.854;-92.408;2023-05-02T07:11:05;100138.80;;;23.52;27.95
37710;BME280;60223;34.854;-92.408;2023-05-02T07:13:32;100136.99;;;23.59;27.88
37710;BME280;60223;34.854;-92.408;2023-05-02T07:15:57;100136.59;;;23.76;27.70
37710;BME280;60223;34.854;-92.408;2023-05-02T07:18:23;100136.99;;;24.18;27.46
37710;BME280;60223;34.854;-92.408;2023-05-02T07:20:49;100137.85;;;23.58;27.57
37710;BME280;60223;34.854;-92.408;2023-05-02T07:23:13;100133.72;;;23.79;27.77
37710;BME280;60223;34.854;-92.408;2023-05-02T07:25:40;100134.18;;;23.39;27.92
37710;BME280;60223;34.854;-92.408;2023-05-02T07:28:05;100133.54;;;23.15;27.90
37710;BME280;60223;34.854;-92.408;2023-05-02T07:30:31;100131.21;;;23.81;27.48
37710;BME280;60223;34.854;-92.408;2023-05-02T07:32:56;100127.80;;;23.82;27.69
37710;BME280;60223;34.854;-92.408;2023-05-02T07:35:23;100124.35;;;23.68;27.83
37710;BME280;60223;34.854;-92.408;2023-05-02T07:37:48;100122.55;;;23.45;27.78
37710;BME280;60223;34.854;-92.408;2023-05-02T07:40:14;100119.54;;;23.57;27.87
37710;BME280;60223;34.854;-92.408;2023-05-02T07:42:40;100118.89;;;23.66;27.81
37710;BME280;60223;34.854;-92.408;2023-05-02T07:45:06;100118.19;;;23.84;27.64
37710;BME280;60223;34.854;-92.408;2023-05-02T07:47:31;100117.06;;;23.47;27.75
37710;BME280;60223;34.854;-92.408;2023-05-02T07:49:57;100116.88;;;23.15;27.56
37710;BME280;60223;34.854;-92.408;2023-05-02T07:52:23;100120.47;;;23.53;27.64
37710;BME280;60223;34.854;-92.408;2023-05-02T07:54:47;100124.41;;;23.15;27.72
37710;BME280;60223;34.854;-92.408;2023-05-02T07:57:14;100127.13;;;23.74;27.59
37710;BME280;60223;34.854;-92.408;2023-05-02T07:59:40;100126.64;;;23.24;27.57
37710;BME280;60223;34.854;-92.408;2023-05-02T08:02:05;100127.08;;;24.17;27.13
37710;BME280;60223;34.854;-92.408;2023-05-02T08:04:29;100127.40;;;23.85;27.40
37710;BME280;60223;34.854;-92.408;2023-05-02T08:06:57;100128.69;;;23.87;27.38
37710;BME280;60223;34.854;-92.408;2023-05-02T08:09:22;100130.63;;;23.34;27.39
37710;BME280;60223;34.854;-92.408;2023-05-02T08:11:48;100130.60;;;23.59;27.59
37710;BME280;60223;34.854;-92.408;2023-05-02T08:14:12;100133.09;;;23.29;27.88
37710;BME280;60223;34.854;-92.408;2023-05-02T08:16:37;100133.19;;;23.52;27.60
37710;BME280;60223;34.854;-92.408;2023-05-02T08:19:05;100133.76;;;23.82;27.32
37710;BME280;60223;34.854;-92.408;2023-05-02T08:21:30;100134.07;;;23.45;27.65
37710;BME280;60223;34.854;-92.408;2023-05-02T08:24:00;100136.48;;;23.16;27.69
37710;BME280;60223;34.854;-92.408;2023-05-02T08:26:20;100136.55;;;23.51;27.56
37710;BME280;60223;34.854;-92.408;2023-05-02T08:28:47;100138.77;;;23.47;27.58
37710;BME280;60223;34.854;-92.408;2023-05-02T08:31:13;100140.94;;;23.33;27.48
37710;BME280;60223;34.854;-92.408;2023-05-02T08:33:39;100140.67;;;23.76;27.29
37710;BME280;60223;34.854;-92.408;2023-05-02T08:38:30;100144.34;;;23.59;27.38
37710;BME280;60223;34.854;-92.408;2023-05-02T08:40:54;100144.38;;;23.48;27.44
37710;BME280;60223;34.854;-92.408;2023-05-02T08:43:22;100149.55;;;23.53;27.39
37710;BME280;60223;34.854;-92.408;2023-05-02T08:45:47;100149.76;;;22.93;27.47
37710;BME280;60223;34.854;-92.408;2023-05-02T08:48:13;100149.29;;;23.30;27.34
37710;BME280;60223;34.854;-92.408;2023-05-02T08:50:38;100148.14;;;23.23;27.41
37710;BME280;60223;34.854;-92.408;2023-05-02T08:53:06;100145.08;;;23.50;27.34
37710;BME280;60223;34.854;-92.408;2023-05-02T08:55:30;100141.56;;;23.61;27.25
37710;BME280;60223;34.854;-92.408;2023-05-02T08:57:57;100142.93;;;23.62;27.21
37710;BME280;60223;34.854;-92.408;2023-05-02T09:00:22;100144.68;;;23.53;27.27
37710;BME280;60223;34.854;-92.408;2023-05-02T09:02:55;100144.01;;;23.24;27.50
37710;BME280;60223;34.854;-92.408;2023-05-02T09:05:17;100143.01;;;23.38;27.35
37710;BME280;60223;34.854;-92.408;2023-05-02T09:07:43;100140.03;;;23.28;27.44
37710;BME280;60223;34.854;-92.408;2023-05-02T09:10:05;100140.14;;;23.13;27.33
37710;BME280;60223;34.854;-92.408;2023-05-02T09:12:28;100144.85;;;23.35;27.36
37710;BME280;60223;34.854;-92.408;2023-05-02T09:15:08;100143.74;;;23.41;27.28
37710;BME280;60223;34.854;-92.408;2023-05-02T09:17:21;100149.22;;;23.27;27.39
37710;BME280;60223;34.854;-92.408;2023-05-02T09:22:13;100154.48;;;23.21;27.42
37710;BME280;60223;34.854;-92.408;2023-05-02T09:24:38;100158.39;;;23.10;27.30
37710;BME280;60223;34.854;-92.408;2023-05-02T09:27:03;100158.62;;;23.52;27.09
37710;BME280;60223;34.854;-92.408;2023-05-02T09:29:31;100157.28;;;22.98;27.10
37710;BME280;60223;34.854;-92.408;2023-05-02T09:31:55;100151.41;;;23.42;27.07
37710;BME280;60223;34.854;-92.408;2023-05-02T09:34:22;100149.54;;;23.53;26.96
37710;BME280;60223;34.854;-92.408;2023-05-02T09:36:47;100150.73;;;23.36;27.09
37710;BME280;60223;34.854;-92.408;2023-05-02T09:39:14;100156.66;;;23.53;26.92
37710;BME280;60223;34.854;-92.408;2023-05-02T09:41:43;100158.17;;;23.55;26.89
37710;BME280;60223;34.854;-92.408;2023-05-02T09:44:04;100163.01;;;23.54;26.88
37710;BME280;60223;34.854;-92.408;2023-05-02T09:46:38;100164.12;;;23.14;26.83
37710;BME280;60223;34.854;-92.408;2023-05-02T09:48:56;100166.59;;;23.01;26.89
37710;BME280;60223;34.854;-92.408;2023-05-02T09:51:22;100171.88;;;23.40;26.98
37710;BME280;60223;34.854;-92.408;2023-05-02T09:53:47;100174.03;;;23.34;27.00
37710;BME280;60223;34.854;-92.408;2023-05-02T09:56:12;100177.03;;;23.44;26.89
37710;BME280;60223;34.854;-92.408;2023-05-02T09:58:37;100177.88;;;23.32;26.97
37710;BME280;60223;34.854;-92.408;2023-05-02T10:01:04;100176.77;;;23.21;27.05
37710;BME280;60223;34.854;-92.408;2023-05-02T10:03:30;100177.94;;;23.34;26.95
37710;BME280;60223;34.854;-92.408;2023-05-02T10:05:55;100177.89;;;23.14;27.14
37710;BME280;60223;34.854;-92.408;2023-05-02T10:08:23;100179.95;;;23.31;26.96
37710;BME280;60223;34.854;-92.408;2023-05-02T10:10:50;100184.86;;;23.31;26.97
37710;BME280;60223;34.854;-92.408;2023-05-02T10:13:12;100184.62;;;23.40;26.87
37710;BME280;60223;34.854;-92.408;2023-05-02T10:15:43;100187.15;;;23.27;26.90
37710;BME280;60223;34.854;-92.408;2023-05-02T10:18:07;100184.92;;;23.33;26.83
37710;BME280;60223;34.854;-92.408;2023-05-02T10:20:29;100183.49;;;23.30;26.83
37710;BME280;60223;34.854;-92.408;2023-05-02T10:22:56;100183.18;;;23.35;26.72
37710;BME280;60223;34.854;-92.408;2023-05-02T10:25:20;100183.79;;;23.34;26.74
37710;BME280;60223;34.854;-92.408;2023-05-02T10:27:46;100183.95;;;23.27;26.77
37710;BME280;60223;34.854;-92.408;2023-05-02T10:30:11;100185.11;;;23.42;26.57
37710;BME280;60223;34.854;-92.408;2023-05-02T10:32:39;100185.35;;;23.15;26.60
37710;BME280;60223;34.854;-92.408;2023-05-02T10:35:04;100186.07;;;23.51;26.52
37710;BME280;60223;34.854;-92.408;2023-05-02T10:37:30;100186.85;;;23.36;26.63
37710;BME280;60223;34.854;-92.408;2023-05-02T10:39:55;100187.18;;;23.40;26.56
37710;BME280;60223;34.854;-92.408;2023-05-02T10:42:20;100186.77;;;23.28;26.69
37710;BME280;60223;34.854;-92.408;2023-05-02T10:44:46;100190.50;;;23.39;26.55
37710;BME280;60223;34.854;-92.408;2023-05-02T10:47:20;100191.60;;;23.31;26.65
37710;BME280;60223;34.854;-92.408;2023-05-02T10:52:06;100199.65;;;23.50;26.75
37710;BME280;60223;34.854;-92.408;2023-05-02T10:54:29;100207.26;;;23.05;26.84
37710;BME280;60223;34.854;-92.408;2023-05-02T10:57:04;100212.10;;;23.13;26.78
37710;BME280;60223;34.854;-92.408;2023-05-02T10:59:30;100213.29;;;23.42;26.74
37710;BME280;60223;34.854;-92.408;2023-05-02T11:01:44;100211.05;;;23.23;26.69
37710;BME280;60223;34.854;-92.408;2023-05-02T11:04:12;100215.81;;;23.20;26.71
37710;BME280;60223;34.854;-92.408;2023-05-02T11:11:38;100229.38;;;23.16;26.60
37710;BME280;60223;34.854;-92.408;2023-05-02T11:13:53;100230.31;;;23.27;26.44
37710;BME280;60223;34.854;-92.408;2023-05-02T11:16:19;100233.88;;;23.54;26.38
37710;BME280;60223;34.854;-92.408;2023-05-02T11:18:57;100230.66;;;23.52;26.19
37710;BME280;60223;34.854;-92.408;2023-05-02T11:21:26;100240.69;;;23.22;26.23
37710;BME280;60223;34.854;-92.408;2023-05-02T11:23:37;100243.73;;;23.46;26.18
37710;BME280;60223;34.854;-92.408;2023-05-02T11:26:04;100244.26;;;23.62;26.08
37710;BME280;60223;34.854;-92.408;2023-05-02T11:28:38;100251.19;;;23.20;26.42
37710;BME280;60223;34.854;-92.408;2023-05-02T11:30:53;100254.88;;;23.30;26.31
37710;BME280;60223;34.854;-92.408;2023-05-02T11:33:19;100262.51;;;23.40;26.26
37710;BME280;60223;34.854;-92.408;2023-05-02T11:35:48;100264.67;;;23.36;26.30
37710;BME280;60223;34.854;-92.408;2023-05-02T11:38:12;100262.41;;;23.26;26.33
37710;BME280;60223;34.854;-92.408;2023-05-02T11:40:37;100266.55;;;23.11;26.54
37710;BME280;60223;34.854;-92.408;2023-05-02T11:45:33;100267.31;;;23.06;26.55
37710;BME280;60223;34.854;-92.408;2023-05-02T11:47:55;100267.93;;;23.25;26.54
37710;BME280;60223;34.854;-92.408;2023-05-02T11:50:20;100272.41;;;23.01;26.56
37710;BME280;60223;34.854;-92.408;2023-05-02T11:52:46;100276.27;;;23.71;26.35
37710;BME280;60223;34.854;-92.408;2023-05-02T11:55:11;100276.20;;;23.03;26.50
37710;BME280;60223;34.854;-92.408;2023-05-02T11:57:38;100278.80;;;23.45;26.05
37710;BME280;60223;34.854;-92.408;2023-05-02T12:00:03;100282.45;;;23.48;26.27
37710;BME280;60223;34.854;-92.408;2023-05-02T12:02:35;100284.84;;;23.19;26.30
37710;BME280;60223;34.854;-92.408;2023-05-02T12:04:53;100289.67;;;23.43;26.06
37710;BME280;60223;34.854;-92.408;2023-05-02T12:07:20;100295.42;;;23.69;26.08
37710;BME280;60223;34.854;-92.408;2023-05-02T12:09:54;100296.17;;;23.53;26.61
37710;BME280;60223;34.854;-92.408;2023-05-02T12:12:10;100300.71;;;22.81;26.98
37710;BME280;60223;34.854;-92.408;2023-05-02T12:14:37;100300.11;;;23.01;27.07
37710;BME280;60223;34.854;-92.408;2023-05-02T12:17:04;100299.06;;;22.60;27.33
37710;BME280;60223;34.854;-92.408;2023-05-02T12:19:28;100300.08;;;22.69;27.29
37710;BME280;60223;34.854;-92.408;2023-05-02T12:21:54;100299.70;;;22.98;27.01
37710;BME280;60223;34.854;-92.408;2023-05-02T12:24:18;100299.40;;;23.87;26.37
37710;BME280;60223;34.854;-92.408;2023-05-02T12:26:45;100300.89;;;23.16;26.84
37710;BME280;60223;34.854;-92.408;2023-05-02T12:29:10;100298.81;;;23.55;26.34
37710;BME280;60223;34.854;-92.408;2023-05-02T12:31:36;100303.98;;;23.33;26.84
37710;BME280;60223;34.854;-92.408;2023-05-02T12:34:02;100302.83;;;23.37;26.78
37710;BME280;60223;34.854;-92.408;2023-05-02T12:36:27;100302.78;;;23.10;26.74
37710;BME280;60223;34.854;-92.408;2023-05-02T12:38:53;100303.24;;;23.26;26.62
37710;BME280;60223;34.854;-92.408;2023-05-02T12:43:48;100308.51;;;23.68;26.17
37710;BME280;60223;34.854;-92.408;2023-05-02T12:46:14;100307.13;;;23.33;26.15
37710;BME280;60223;34.854;-92.408;2023-05-02T12:48:36;100311.11;;;23.95;25.74
37710;BME280;60223;34.854;-92.408;2023-05-02T12:51:01;100316.86;;;23.74;25.97